Time;durP1;ratioP1;P1;durP2;ratioP2;P2;SDS_P1;SDS_P2;PMS_P1;PMS_P2;Temp;Humidity;BMP_temperature;BMP_pressure;BME280_temperature;BME280_humidity;BME280_pressure;Samples;Min_cycle;Max_cycle;Signal;HPM_P1;HPM_P2
2022/10/24 00:02:07;;;;;;;18.38;11.10;;;;;;;;;;5074374;28;20107;-74
2022/10/24 00:04:35;;;;;;;15.70;10.68;;;;;;;;;;5073288;28;20028;-75
2022/10/24 00:07:01;;;;;;;17.45;10.40;;;;;;;;;;5074713;28;20028;-75
2022/10/24 00:09:26;;;;;;;14.75;9.85;;;;;;;;;;5074274;28;20389;-75
2022/10/24 00:11:52;;;;;;;19.23;9.93;;;;;;;;;;5074649;28;20430;-75
2022/10/24 00:14:17;;;;;;;16.90;10.25;;;;;;;;;;5074109;28;20450;-75
2022/10/24 00:16:42;;;;;;;14.88;9.43;;;;;;;;;;5074425;28;20028;-75
2022/10/24 00:19:08;;;;;;;18.40;10.27;;;;;;;;;;5074338;28;20509;-75
2022/10/24 00:21:33;;;;;;;18.80;10.63;;;;;;;;;;5073928;28;20031;-75
2022/10/24 00:23:58;;;;;;;18.42;10.25;;;;;;;;;;5073887;28;20090;-76
2022/10/24 00:26:24;;;;;;;18.30;10.88;;;;;;;;;;5073845;28;20037;-76
2022/10/24 00:28:49;;;;;;;15.13;10.35;;;;;;;;;;5074038;28;20020;-75
2022/10/24 00:31:17;;;;;;;24.80;10.60;;;;;;;;;;5073904;28;20125;-76
2022/10/24 00:33:43;;;;;;;17.20;10.80;;;;;;;;;;5074027;28;20028;-76
2022/10/24 00:36:11;;;;;;;21.23;10.40;;;;;;;;;;5073782;28;20515;-75
2022/10/24 00:38:36;;;;;;;17.25;10.00;;;;;;;;;;5073673;28;20389;-75
2022/10/24 00:41:02;;;;;;;16.15;9.98;;;;;;;;;;5073759;28;20021;-75
2022/10/24 00:43:27;;;;;;;21.77;9.80;;;;;;;;;;5073510;28;20021;-75
2022/10/24 00:46:00;;;;;;;16.48;9.73;;;;;;;;;;5073566;28;20024;-75
2022/10/24 00:48:45;;;;;;;18.00;9.88;;;;;;;;;;5074084;28;20039;-75
2022/10/24 00:51:24;;;;;;;17.80;9.70;;;;;;;;;;5073487;28;20027;-75
2022/10/24 00:53:52;;;;;;;17.20;8.82;;;;;;;;;;5073497;28;20036;-75
2022/10/24 00:56:20;;;;;;;14.93;8.52;;;;;;;;;;5072025;28;20052;-74
2022/10/24 00:58:47;;;;;;;21.17;9.13;;;;;;;;;;5073571;28;20036;-75
2022/10/24 01:01:12;;;;;;;17.92;8.57;;;;;;;;;;5072074;28;20036;-75
2022/10/24 01:03:38;;;;;;;15.30;8.55;;;;;;;;;;5073274;28;20126;-76
2022/10/24 01:06:18;;;;;;;15.43;9.02;;;;;;;;;;5072121;28;20036;-76
2022/10/24 01:09:19;;;;;;;15.32;8.68;;;;;;;;;;5073320;28;20050;-75
2022/10/24 01:12:13;;;;;;;14.10;8.52;;;;;;;;;;5071963;28;20082;-75
2022/10/24 01:14:48;;;;;;;;;;;;;;;;;;5067826;28;20064;-75
2022/10/24 01:17:21;;;;;;;13.32;7.00;;;;;;;;;;5073162;28;19951;-75
2022/10/24 01:20:20;;;;;;;18.50;7.68;;;;;;;;;;5073170;28;20036;-74
2022/10/24 01:22:54;;;;;;;10.85;7.63;;;;;;;;;;5073274;28;20036;-74
2022/10/24 01:25:37;;;;;;;16.20;7.75;;;;;;;;;;5071790;28;20066;-75
2022/10/24 01:28:13;;;;;;;14.18;7.72;;;;;;;;;;5073340;28;20113;-74
2022/10/24 01:30:44;;;;;;;13.27;8.18;;;;;;;;;;5073121;28;20024;-74
2022/10/24 01:33:30;;;;;;;11.77;7.47;;;;;;;;;;5073555;28;20387;-75
2022/10/24 01:36:04;;;;;;;11.43;7.50;;;;;;;;;;5073248;28;20108;-75
2022/10/24 01:38:44;;;;;;;13.93;7.97;;;;;;;;;;5073051;28;20482;-75
2022/10/24 01:41:12;;;;;;;12.95;8.02;;;;;;;;;;5072910;28;20440;-75
2022/10/24 01:43:43;;;;;;;14.98;8.27;;;;;;;;;;5072783;28;20021;-75
2022/10/24 01:46:21;;;;;;;13.52;7.82;;;;;;;;;;5072759;28;20033;-75
2022/10/24 01:48:51;;;;;;;13.43;7.72;;;;;;;;;;5073042;28;20013;-76
2022/10/24 01:51:21;;;;;;;13.30;7.97;;;;;;;;;;5076073;28;20504;-75
2022/10/24 01:53:47;;;;;;;14.50;8.27;;;;;;;;;;5076565;28;20028;-74
2022/10/24 01:56:12;;;;;;;16.83;8.48;;;;;;;;;;5076883;28;20021;-74
2022/10/24 01:58:37;;;;;;;17.67;8.82;;;;;;;;;;5076563;28;20082;-75
2022/10/24 02:01:09;;;;;;;13.52;8.65;;;;;;;;;;5076508;28;20027;-74
2022/10/24 02:03:43;;;;;;;16.65;8.70;;;;;;;;;;5076607;28;20033;-75
2022/10/24 02:06:28;;;;;;;14.35;8.77;;;;;;;;;;5077064;28;20063;-75
2022/10/24 02:08:58;;;;;;;16.40;8.45;;;;;;;;;;5076877;28;20060;-76
2022/10/24 02:11:23;;;;;;;13.02;8.18;;;;;;;;;;5076682;28;20021;-75
2022/10/24 02:14:13;;;;;;;16.23;8.43;;;;;;;;;;5076381;28;20477;-75
2022/10/24 02:16:39;;;;;;;13.40;7.68;;;;;;;;;;5076579;28;20032;-76
2022/10/24 02:19:04;;;;;;;14.25;7.95;;;;;;;;;;5076165;28;20397;-75
2022/10/24 02:21:36;;;;;;;10.45;7.05;;;;;;;;;;5076239;28;20020;-75
2022/10/24 02:24:06;;;;;;;15.30;7.32;;;;;;;;;;5076155;28;20036;-75
2022/10/24 02:26:38;;;;;;;13.15;7.82;;;;;;;;;;5076159;28;20095;-75
2022/10/24 02:29:10;;;;;;;14.20;7.28;;;;;;;;;;5074909;28;20500;-76
2022/10/24 02:31:40;;;;;;;18.45;7.35;;;;;;;;;;5074523;28;20028;-75
2022/10/24 02:34:08;;;;;;;13.63;7.00;;;;;;;;;;5076127;28;20020;-75
2022/10/24 02:36:35;;;;;;;15.90;7.40;;;;;;;;;;5076180;28;20428;-75
2022/10/24 02:39:04;;;;;;;14.20;7.40;;;;;;;;;;5076033;28;20025;-75
2022/10/24 02:41:32;;;;;;;14.65;7.78;;;;;;;;;;5074478;28;20568;-75
2022/10/24 02:44:00;;;;;;;13.25;7.53;;;;;;;;;;5075559;28;20040;-75
2022/10/24 02:46:26;;;;;;;14.32;7.63;;;;;;;;;;5074390;28;20435;-75
2022/10/24 02:48:56;;;;;;;14.45;7.70;;;;;;;;;;5075611;28;20017;-75
2022/10/24 02:51:26;;;;;;;13.70;7.82;;;;;;;;;;5075550;28;20028;-76
2022/10/24 02:53:52;;;;;;;13.98;7.85;;;;;;;;;;5075453;28;20024;-75
2022/10/24 02:56:17;;;;;;;15.18;7.95;;;;;;;;;;5075448;28;20043;-75
2022/10/24 02:58:43;;;;;;;15.77;8.85;;;;;;;;;;5075981;28;20462;-75
2022/10/24 03:01:08;;;;;;;16.27;7.93;;;;;;;;;;5073064;28;20059;-75
2022/10/24 03:03:33;;;;;;;20.15;9.13;;;;;;;;;;5073992;28;20036;-75
2022/10/24 03:05:59;;;;;;;15.57;8.15;;;;;;;;;;5075420;28;20031;-75
2022/10/24 03:08:24;;;;;;;14.32;8.30;;;;;;;;;;5074115;28;20021;-76
2022/10/24 03:10:49;;;;;;;15.90;8.65;;;;;;;;;;5075240;28;20470;-76
2022/10/24 03:13:14;;;;;;;16.95;8.90;;;;;;;;;;5073830;28;20058;-75
2022/10/24 03:15:40;;;;;;;19.10;9.55;;;;;;;;;;5075468;28;20033;-76
2022/10/24 03:18:05;;;;;;;15.60;8.95;;;;;;;;;;5075423;28;20027;-73
2022/10/24 03:20:30;;;;;;;17.25;9.40;;;;;;;;;;5075392;28;20024;-76
2022/10/24 03:22:57;;;;;;;20.70;8.70;;;;;;;;;;5074911;28;20020;-75
2022/10/24 03:25:22;;;;;;;15.48;8.57;;;;;;;;;;5075055;28;20367;-76
2022/10/24 03:27:47;;;;;;;17.73;9.00;;;;;;;;;;5075320;28;20036;-75
2022/10/24 03:30:12;;;;;;;16.63;8.63;;;;;;;;;;5074866;28;20100;-74
2022/10/24 03:32:38;;;;;;;14.57;8.82;;;;;;;;;;5075063;28;20029;-74
2022/10/24 03:35:03;;;;;;;17.27;8.57;;;;;;;;;;5075059;28;20047;-75
2022/10/24 03:37:29;;;;;;;15.43;8.32;;;;;;;;;;5074694;28;20024;-75
2022/10/24 03:39:54;;;;;;;15.90;8.43;;;;;;;;;;5074664;28;20033;-75
2022/10/24 03:42:20;;;;;;;18.63;8.77;;;;;;;;;;5074811;28;20025;-74
2022/10/24 03:44:45;;;;;;;17.83;9.10;;;;;;;;;;5074512;28;20028;-75
2022/10/24 03:47:10;;;;;;;19.27;9.60;;;;;;;;;;5074527;28;20028;-75
2022/10/24 03:49:36;;;;;;;16.35;9.00;;;;;;;;;;5074461;28;20024;-75
2022/10/24 03:52:01;;;;;;;14.48;9.15;;;;;;;;;;5073011;28;20047;-74
2022/10/24 03:54:26;;;;;;;15.68;9.40;;;;;;;;;;5074529;28;20073;-76
2022/10/24 03:56:51;;;;;;;19.23;9.98;;;;;;;;;;5073076;28;20058;-75
2022/10/24 03:59:17;;;;;;;15.95;9.35;;;;;;;;;;5074536;28;20104;-75
2022/10/24 04:01:42;;;;;;;20.98;9.65;;;;;;;;;;5074551;28;20100;-76
2022/10/24 04:04:08;;;;;;;15.93;9.30;;;;;;;;;;5072919;28;20478;-75
2022/10/24 04:06:33;;;;;;;18.25;9.18;;;;;;;;;;5074186;28;20410;-75
2022/10/24 04:08:58;;;;;;;17.85;8.90;;;;;;;;;;5074196;28;20039;-76
2022/10/24 04:11:24;;;;;;;14.80;8.95;;;;;;;;;;5074516;28;20056;-76
2022/10/24 04:13:51;;;;;;;15.70;8.35;;;;;;;;;;5072517;28;20024;-75
2022/10/24 04:16:17;;;;;;;14.70;8.77;;;;;;;;;;5073922;28;20098;-76
2022/10/24 04:18:43;;;;;;;17.10;8.60;;;;;;;;;;5072633;28;21954;-76
2022/10/24 04:21:08;;;;;;;16.02;9.30;;;;;;;;;;5074200;28;20132;-75
2022/10/24 04:23:39;;;;;;;15.65;8.93;;;;;;;;;;5073843;28;20028;-76
2022/10/24 04:26:05;;;;;;;13.70;8.02;;;;;;;;;;5074121;28;20020;-76
2022/10/24 04:28:30;;;;;;;18.48;8.77;;;;;;;;;;5072429;28;20025;-76
2022/10/24 04:30:56;;;;;;;17.10;8.18;;;;;;;;;;5072416;28;20477;-76
2022/10/24 04:33:22;;;;;;;12.60;8.07;;;;;;;;;;5073625;28;20028;-75
2022/10/24 04:35:48;;;;;;;12.98;8.02;;;;;;;;;;5073509;28;20025;-75
2022/10/24 04:38:14;;;;;;;12.38;8.00;;;;;;;;;;5072384;28;20047;-75
2022/10/24 04:40:39;;;;;;;12.75;8.00;;;;;;;;;;5073421;28;20071;-75
2022/10/24 04:43:04;;;;;;;21.05;8.00;;;;;;;;;;5073564;28;20024;-74
2022/10/24 04:45:29;;;;;;;21.02;8.40;;;;;;;;;;5073630;28;20027;-75
2022/10/24 04:47:55;;;;;;;14.07;7.55;;;;;;;;;;5073352;28;20024;-75
2022/10/24 04:50:20;;;;;;;14.93;7.57;;;;;;;;;;5072144;28;20153;-75
2022/10/24 04:52:45;;;;;;;13.00;7.65;;;;;;;;;;5073145;28;20516;-75
2022/10/24 04:55:11;;;;;;;15.68;8.20;;;;;;;;;;5073192;28;20389;-75
2022/10/24 04:57:36;;;;;;;14.35;7.80;;;;;;;;;;5072006;28;20035;-75
2022/10/24 05:00:02;;;;;;;15.88;8.00;;;;;;;;;;5073041;28;20197;-76
2022/10/24 05:02:27;;;;;;;17.20;8.57;;;;;;;;;;5073306;28;20028;-76
2022/10/24 05:04:53;;;;;;;17.58;8.10;;;;;;;;;;5071912;28;20437;-75
2022/10/24 05:07:20;;;;;;;20.60;8.80;;;;;;;;;;5073444;28;20103;-76
2022/10/24 05:09:45;;;;;;;18.85;8.82;;;;;;;;;;5073103;28;20070;-75
2022/10/24 05:12:12;;;;;;;18.75;9.43;;;;;;;;;;5071753;28;20020;-75
2022/10/24 05:14:37;;;;;;;19.48;9.00;;;;;;;;;;5073229;28;20540;-75
2022/10/24 05:17:02;;;;;;;17.25;8.18;;;;;;;;;;5071673;28;20028;-76
2022/10/24 05:19:28;;;;;;;17.35;7.70;;;;;;;;;;5072921;28;20020;-75
2022/10/24 05:21:53;;;;;;;19.85;7.57;;;;;;;;;;5072910;28;20189;-75
2022/10/24 05:24:18;;;;;;;12.20;7.47;;;;;;;;;;5070991;28;20398;-75
2022/10/24 05:26:43;;;;;;;13.52;6.90;;;;;;;;;;5072830;28;20020;-75
2022/10/24 05:29:09;;;;;;;17.65;6.63;;;;;;;;;;5073420;28;20025;-75
2022/10/24 05:31:34;;;;;;;13.90;7.03;;;;;;;;;;5072832;28;20478;-75
2022/10/24 05:33:59;;;;;;;13.85;6.50;;;;;;;;;;5071495;28;20394;-75
2022/10/24 05:36:25;;;;;;;10.63;6.07;;;;;;;;;;5072770;28;20355;-75
2022/10/24 05:38:50;;;;;;;11.15;6.05;;;;;;;;;;5072976;28;20025;-75
2022/10/24 05:41:15;;;;;;;12.75;6.50;;;;;;;;;;5072787;28;20078;-75
2022/10/24 05:43:40;;;;;;;10.10;5.65;;;;;;;;;;5072818;28;20024;-75
2022/10/24 05:46:06;;;;;;;14.20;6.18;;;;;;;;;;5072846;28;20082;-74
2022/10/24 05:48:31;;;;;;;10.85;5.75;;;;;;;;;;5071385;28;20119;-74
2022/10/24 05:50:57;;;;;;;11.30;5.55;;;;;;;;;;5072740;28;20035;-75
2022/10/24 05:53:24;;;;;;;13.00;6.03;;;;;;;;;;5072864;28;20024;-74
2022/10/24 05:55:49;;;;;;;12.70;6.35;;;;;;;;;;5072558;28;20024;-74
2022/10/24 05:58:19;;;;;;;10.45;5.65;;;;;;;;;;5072392;28;20020;-74
2022/10/24 06:00:45;;;;;;;12.65;6.07;;;;;;;;;;5072885;28;20037;-73
2022/10/24 06:03:10;;;;;;;12.73;6.65;;;;;;;;;;5071148;28;20116;-74
2022/10/24 06:05:36;;;;;;;13.13;6.55;;;;;;;;;;5072467;28;20024;-75
2022/10/24 06:08:01;;;;;;;11.10;6.18;;;;;;;;;;5072383;28;20127;-75
2022/10/24 06:10:26;;;;;;;13.80;6.60;;;;;;;;;;5072458;28;20013;-75
2022/10/24 06:12:51;;;;;;;15.30;6.43;;;;;;;;;;5072513;28;20107;-75
2022/10/24 06:15:17;;;;;;;13.50;5.57;;;;;;;;;;5072677;28;20031;-75
2022/10/24 06:17:42;;;;;;;10.75;6.20;;;;;;;;;;5072715;28;20477;-75
2022/10/24 06:20:08;;;;;;;15.25;6.10;;;;;;;;;;5072966;28;20410;-74
2022/10/24 06:22:33;;;;;;;11.70;5.78;;;;;;;;;;5070989;28;20017;-76
2022/10/24 06:24:59;;;;;;;10.75;5.88;;;;;;;;;;5072640;28;20070;-74
2022/10/24 06:27:25;;;;;;;10.73;5.45;;;;;;;;;;5071115;28;20090;-74
2022/10/24 06:29:50;;;;;;;10.15;5.28;;;;;;;;;;5072602;28;20019;-74
2022/10/24 06:32:15;;;;;;;8.55;5.22;;;;;;;;;;5072198;28;20359;-74
2022/10/24 06:34:40;;;;;;;9.63;5.13;;;;;;;;;;5072295;28;20032;-75
2022/10/24 06:37:06;;;;;;;14.00;5.20;;;;;;;;;;5075328;28;20431;-74
2022/10/24 06:39:31;;;;;;;13.30;4.72;;;;;;;;;;5075701;28;20032;-74
2022/10/24 06:41:56;;;;;;;13.32;4.90;;;;;;;;;;5075685;28;20024;-74
2022/10/24 06:44:24;;;;;;;12.77;4.60;;;;;;;;;;5075865;28;20039;-74
2022/10/24 06:46:49;;;;;;;10.55;4.63;;;;;;;;;;5075658;28;20021;-74
2022/10/24 06:49:16;;;;;;;10.32;5.28;;;;;;;;;;5075957;28;20020;-74
2022/10/24 06:51:41;;;;;;;13.13;5.47;;;;;;;;;;5074236;28;20052;-73
2022/10/24 06:54:06;;;;;;;10.60;5.25;;;;;;;;;;5075417;28;20107;-74
2022/10/24 06:56:32;;;;;;;10.02;4.57;;;;;;;;;;5075923;28;20029;-75
2022/10/24 06:58:57;;;;;;;10.70;5.10;;;;;;;;;;5075373;28;20082;-74
2022/10/24 07:01:24;;;;;;;8.88;4.63;;;;;;;;;;5075431;28;20058;-74
2022/10/24 07:03:50;;;;;;;9.35;4.78;;;;;;;;;;5075420;28;20024;-76
2022/10/24 07:06:20;;;;;;;8.25;4.45;;;;;;;;;;5075697;28;20016;-75
2022/10/24 07:08:46;;;;;;;9.30;4.28;;;;;;;;;;5075582;28;20447;-74
2022/10/24 07:11:12;;;;;;;12.38;4.70;;;;;;;;;;5075593;28;20103;-75
2022/10/24 07:13:38;;;;;;;8.90;4.32;;;;;;;;;;5075310;28;20052;-76
2022/10/24 07:16:04;;;;;;;12.70;4.38;;;;;;;;;;5075625;28;20036;-74
2022/10/24 07:18:29;;;;;;;5.85;3.72;;;;;;;;;;5075020;28;20444;-75
2022/10/24 07:21:00;;;;;;;9.77;4.80;;;;;;;;;;5073874;28;20107;-74
2022/10/24 07:23:25;;;;;;;12.48;4.40;;;;;;;;;;5075949;28;20033;-74
2022/10/24 07:25:51;;;;;;;8.48;4.50;;;;;;;;;;5084884;28;20039;-74
2022/10/24 07:28:17;;;;;;;13.50;4.93;;;;;;;;;;5089294;28;20032;-74
2022/10/24 07:30:43;;;;;;;8.55;4.57;;;;;;;;;;5089074;28;20016;-74
2022/10/24 07:33:08;;;;;;;7.32;4.07;;;;;;;;;;5089761;28;20025;-74
2022/10/24 07:35:34;;;;;;;11.15;4.32;;;;;;;;;;5088896;28;20035;-74
2022/10/24 07:37:59;;;;;;;16.17;5.15;;;;;;;;;;5087743;28;20048;-74
2022/10/24 07:40:24;;;;;;;9.50;4.63;;;;;;;;;;5085114;28;20135;-74
2022/10/24 07:42:49;;;;;;;10.35;4.72;;;;;;;;;;5085624;28;20029;-74
2022/10/24 07:45:15;;;;;;;8.93;4.35;;;;;;;;;;5086032;28;20084;-74
2022/10/24 07:47:40;;;;;;;8.05;4.13;;;;;;;;;;5084722;28;20031;-75
2022/10/24 07:50:06;;;;;;;12.85;4.78;;;;;;;;;;5085858;28;20055;-74
2022/10/24 07:52:32;;;;;;;7.55;4.57;;;;;;;;;;5085607;28;20043;-74
2022/10/24 07:54:57;;;;;;;11.57;4.80;;;;;;;;;;5085812;28;20056;-74
2022/10/24 07:57:23;;;;;;;11.88;4.65;;;;;;;;;;5084227;28;20032;-74
2022/10/24 07:59:48;;;;;;;12.55;4.70;;;;;;;;;;5083617;28;20070;-74
2022/10/24 08:02:14;;;;;;;8.30;4.40;;;;;;;;;;5085912;28;20051;-74
2022/10/24 08:04:41;;;;;;;9.13;4.28;;;;;;;;;;5065505;28;20056;-74
2022/10/24 08:07:11;;;;;;;11.45;4.70;;;;;;;;;;5064933;28;20066;-74
2022/10/24 08:09:39;;;;;;;8.63;4.65;;;;;;;;;;5064761;28;20017;-75
2022/10/24 08:12:04;;;;;;;9.90;4.45;;;;;;;;;;5065353;28;20029;-75
2022/10/24 08:14:30;;;;;;;10.90;4.78;;;;;;;;;;5065908;28;20074;-74
2022/10/24 08:16:55;;;;;;;8.55;4.55;;;;;;;;;;5062568;28;20084;-74
2022/10/24 08:19:20;;;;;;;7.78;4.25;;;;;;;;;;5062755;28;20367;-75
2022/10/24 08:21:45;;;;;;;13.50;4.88;;;;;;;;;;5061074;28;20096;-75
2022/10/24 08:24:11;;;;;;;8.77;4.05;;;;;;;;;;5054105;28;20032;-75
2022/10/24 08:26:39;;;;;;;10.07;4.25;;;;;;;;;;5054176;28;20029;-75
2022/10/24 08:29:09;;;;;;;12.73;4.43;;;;;;;;;;5053777;28;20486;-75
2022/10/24 08:31:35;;;;;;;12.00;4.47;;;;;;;;;;5053868;28;20402;-75
2022/10/24 08:34:00;;;;;;;17.92;4.30;;;;;;;;;;5053496;28;20027;-74
2022/10/24 08:36:30;;;;;;;11.50;4.32;;;;;;;;;;5053803;28;20428;-74
2022/10/24 08:38:56;;;;;;;9.73;4.40;;;;;;;;;;5053612;28;20033;-75
2022/10/24 08:41:27;;;;;;;9.52;4.45;;;;;;;;;;5068939;28;20111;-75
2022/10/24 08:43:54;;;;;;;11.10;4.82;;;;;;;;;;5053517;28;20025;-75
2022/10/24 08:46:49;;;;;;;10.32;4.10;;;;;;;;;;5053392;28;20032;-75
2022/10/24 08:49:36;;;;;;;9.27;4.05;;;;;;;;;;5053485;28;20043;-75
2022/10/24 08:52:31;;;;;;;11.68;4.40;;;;;;;;;;5052212;28;20395;-74
2022/10/24 08:55:02;;;;;;;10.52;4.03;;;;;;;;;;5068842;28;20040;-75
2022/10/24 08:57:30;;;;;;;8.00;4.38;;;;;;;;;;5053524;28;20029;-76
2022/10/24 09:00:00;;;;;;;11.38;4.22;;;;;;;;;;5052531;28;20502;-76
2022/10/24 09:02:29;;;;;;;8.35;3.97;;;;;;;;;;5053403;28;20162;-75
2022/10/24 09:04:59;;;;;;;11.65;4.07;;;;;;;;;;5053093;28;20482;-75
2022/10/24 09:07:25;;;;;;;7.90;3.55;;;;;;;;;;5053488;28;20037;-74
2022/10/24 09:10:00;;;;;;;8.70;3.83;;;;;;;;;;5053069;28;20024;-76
2022/10/24 09:12:26;;;;;;;9.23;3.75;;;;;;;;;;5053013;28;20033;-75
2022/10/24 09:14:57;;;;;;;12.02;3.85;;;;;;;;;;5053320;28;20021;-76
2022/10/24 09:17:28;;;;;;;7.25;3.50;;;;;;;;;;5053300;28;20028;-75
2022/10/24 09:20:17;;;;;;;11.02;4.03;;;;;;;;;;5052833;28;20042;-75
2022/10/24 09:22:43;;;;;;;9.25;3.53;;;;;;;;;;5047339;28;20041;-75
2022/10/24 09:25:15;;;;;;;8.30;3.67;;;;;;;;;;5052825;28;20063;-75
2022/10/24 09:27:41;;;;;;;8.02;3.63;;;;;;;;;;5052802;28;20027;-75
2022/10/24 09:30:14;;;;;;;12.80;4.80;;;;;;;;;;5052859;28;20025;-75
2022/10/24 09:32:40;;;;;;;10.07;3.13;;;;;;;;;;5053093;28;20033;-75
2022/10/24 09:35:11;;;;;;;6.63;3.58;;;;;;;;;;5052876;28;20024;-75
2022/10/24 09:37:43;;;;;;;11.20;3.70;;;;;;;;;;5052719;28;20036;-75
2022/10/24 09:40:30;;;;;;;8.95;3.72;;;;;;;;;;5052662;28;20116;-75
2022/10/24 09:43:16;;;;;;;9.60;3.90;;;;;;;;;;5052650;28;20047;-75
2022/10/24 09:45:45;;;;;;;7.82;3.80;;;;;;;;;;5052868;28;20027;-76
2022/10/24 09:48:31;;;;;;;10.38;4.00;;;;;;;;;;5052696;28;20071;-75
2022/10/24 09:50:57;;;;;;;14.40;4.07;;;;;;;;;;5052868;28;20056;-75
2022/10/24 09:53:29;;;;;;;7.38;3.60;;;;;;;;;;5052594;28;20029;-75
2022/10/24 09:55:58;;;;;;;10.40;3.90;;;;;;;;;;5052651;28;20522;-76
2022/10/24 09:58:33;;;;;;;7.53;3.28;;;;;;;;;;5051240;28;20027;-75
2022/10/24 10:01:00;;;;;;;11.30;3.72;;;;;;;;;;5052542;28;20021;-75
2022/10/24 10:03:26;;;;;;;8.02;3.72;;;;;;;;;;5052543;28;20079;-75
2022/10/24 10:05:53;;;;;;;8.95;3.58;;;;;;;;;;5053130;28;20025;-76
2022/10/24 10:08:24;;;;;;;9.20;3.50;;;;;;;;;;5052459;28;20032;-75
2022/10/24 10:10:56;;;;;;;9.70;3.72;;;;;;;;;;5053415;28;20028;-75
2022/10/24 10:13:24;;;;;;;7.20;3.63;;;;;;;;;;5056212;28;20024;-75
2022/10/24 10:15:51;;;;;;;5.50;3.10;;;;;;;;;;5071604;28;20024;-75
2022/10/24 10:18:21;;;;;;;7.72;3.13;;;;;;;;;;5056405;28;20021;-75
2022/10/24 10:20:59;;;;;;;7.88;3.35;;;;;;;;;;5056126;28;20107;-75
2022/10/24 10:23:33;;;;;;;7.88;3.00;;;;;;;;;;5056393;28;20052;-75
2022/10/24 10:26:03;;;;;;;7.50;3.42;;;;;;;;;;5056146;28;20025;-75
2022/10/24 10:28:29;;;;;;;10.43;3.53;;;;;;;;;;5071486;28;20021;-74
2022/10/24 10:30:58;;;;;;;10.80;3.33;;;;;;;;;;5056118;28;20548;-74
2022/10/24 10:33:39;;;;;;;6.72;3.00;;;;;;;;;;5055927;28;20029;-75
2022/10/24 10:36:10;;;;;;;6.93;3.00;;;;;;;;;;5055832;28;20150;-75
2022/10/24 10:38:45;;;;;;;8.27;3.05;;;;;;;;;;5071255;28;20025;-75
2022/10/24 10:41:32;;;;;;;7.70;3.42;;;;;;;;;;5056046;28;20032;-75
2022/10/24 10:44:01;;;;;;;8.52;3.05;;;;;;;;;;5071101;28;20505;-75
2022/10/24 10:46:49;;;;;;;9.18;3.20;;;;;;;;;;5055901;28;20031;-75
2022/10/24 10:49:30;;;;;;;6.97;3.70;;;;;;;;;;5055688;28;20059;-75
2022/10/24 10:51:56;;;;;;;8.38;2.95;;;;;;;;;;5055412;28;20024;-74
2022/10/24 10:55:08;;;;;;;8.98;2.67;;;;;;;;;;5055649;28;20086;-75
2022/10/24 10:57:56;;;;;;;6.10;2.85;;;;;;;;;;5055501;28;20087;-74
2022/10/24 11:00:38;;;;;;;11.23;2.95;;;;;;;;;;5055410;28;20025;-75
2022/10/24 11:03:24;;;;;;;9.90;3.67;;;;;;;;;;5055386;28;20032;-75
2022/10/24 11:05:56;;;;;;;10.77;2.70;;;;;;;;;;5055385;28;20063;-75
2022/10/24 11:08:45;;;;;;;9.75;2.33;;;;;;;;;;5055295;28;20029;-75
2022/10/24 11:11:15;;;;;;;8.18;2.70;;;;;;;;;;5055230;28;20478;-74
2022/10/24 11:13:54;;;;;;;8.88;3.53;;;;;;;;;;5070455;28;20505;-74
2022/10/24 11:16:25;;;;;;;6.78;2.30;;;;;;;;;;5055207;28;20025;-75
2022/10/24 11:18:52;;;;;;;9.50;2.22;;;;;;;;;;5055031;28;20111;-74
2022/10/24 11:21:21;;;;;;;8.57;2.20;;;;;;;;;;5055239;28;20029;-75
2022/10/24 11:23:56;;;;;;;7.90;2.30;;;;;;;;;;5053783;28;20048;-75
2022/10/24 11:26:32;;;;;;;7.95;2.30;;;;;;;;;;5054893;28;20029;-75
2022/10/24 11:29:03;;;;;;;8.75;2.10;;;;;;;;;;5054851;28;20025;-75
2022/10/24 11:31:36;;;;;;;5.25;1.88;;;;;;;;;;5054818;28;20021;-75
2022/10/24 11:34:12;;;;;;;11.27;2.08;;;;;;;;;;5055018;28;20021;-75
2022/10/24 11:36:59;;;;;;;8.00;1.63;;;;;;;;;;5070173;28;20032;-75
2022/10/24 11:39:27;;;;;;;5.53;2.05;;;;;;;;;;5054976;28;20044;-75
2022/10/24 11:42:04;;;;;;;6.85;1.85;;;;;;;;;;5053378;28;20072;-75
2022/10/24 11:44:47;;;;;;;5.20;1.77;;;;;;;;;;5055017;28;20029;-75
2022/10/24 11:47:24;;;;;;;8.82;2.15;;;;;;;;;;5055140;28;20025;-75
2022/10/24 11:49:57;;;;;;;9.27;2.55;;;;;;;;;;5053305;28;20394;-75
2022/10/24 11:52:26;;;;;;;9.88;2.67;;;;;;;;;;5054308;28;20434;-75
2022/10/24 11:55:00;;;;;;;9.23;2.55;;;;;;;;;;5054367;28;20082;-75
2022/10/24 11:57:28;;;;;;;6.05;1.92;;;;;;;;;;5054647;28;20036;-75
2022/10/24 11:59:54;;;;;;;4.57;1.90;;;;;;;;;;5054354;28;20443;-75
2022/10/24 12:02:50;;;;;;;6.45;1.88;;;;;;;;;;5054344;28;20107;-75
2022/10/24 12:05:26;;;;;;;6.15;1.83;;;;;;;;;;5054175;28;20028;-75
2022/10/24 12:07:51;;;;;;;5.72;1.40;;;;;;;;;;5054140;28;20024;-76
2022/10/24 12:10:42;;;;;;;4.40;1.52;;;;;;;;;;5054395;28;20021;-75
2022/10/24 12:13:39;;;;;;;6.72;1.58;;;;;;;;;;5052853;28;20448;-75
2022/10/24 12:16:12;;;;;;;6.00;1.45;;;;;;;;;;5054050;28;20025;-75
2022/10/24 12:18:42;;;;;;;6.63;1.70;;;;;;;;;;5052639;28;20024;-75
2022/10/24 12:21:11;;;;;;;6.45;1.40;;;;;;;;;;5053841;28;20071;-75
2022/10/24 12:23:40;;;;;;;8.60;1.50;;;;;;;;;;5053753;28;20112;-74
2022/10/24 12:26:24;;;;;;;3.72;1.40;;;;;;;;;;5053780;28;20402;-75
2022/10/24 12:29:00;;;;;;;7.35;1.75;;;;;;;;;;5053733;28;20138;-74
2022/10/24 12:31:34;;;;;;;5.53;1.58;;;;;;;;;;5053807;28;20033;-75
2022/10/24 12:34:14;;;;;;;;;;;;;;;;;;5053915;28;20060;-75
2022/10/24 12:37:07;;;;;;;3.08;1.40;;;;;;;;;;5052653;28;19958;-74
2022/10/24 12:39:35;;;;;;;4.75;1.80;;;;;;;;;;5053505;28;20025;-74
2022/10/24 12:42:01;;;;;;;7.63;3.17;;;;;;;;;;5053706;28;20048;-74
2022/10/24 12:44:32;;;;;;;9.63;3.80;;;;;;;;;;5053720;28;20052;-75
2022/10/24 12:46:59;;;;;;;7.82;3.15;;;;;;;;;;5052026;28;20449;-75
2022/10/24 12:49:27;;;;;;;7.20;2.55;;;;;;;;;;5053737;28;20017;-76
2022/10/24 12:51:53;;;;;;;5.72;2.88;;;;;;;;;;5068622;28;20063;-75
2022/10/24 12:54:38;;;;;;;9.68;3.10;;;;;;;;;;5051877;28;20029;-75
2022/10/24 12:57:03;;;;;;;8.23;3.78;;;;;;;;;;5053379;28;20025;-74
2022/10/24 12:59:30;;;;;;;6.03;1.90;;;;;;;;;;5053125;28;20589;-74
2022/10/24 13:02:33;;;;;;;5.03;1.65;;;;;;;;;;5068490;28;20774;-74
2022/10/24 13:05:13;;;;;;;8.60;2.83;;;;;;;;;;5051936;28;20033;-74
2022/10/24 13:08:06;;;;;;;10.13;3.00;;;;;;;;;;5053494;28;20471;-74
2022/10/24 13:10:50;;;;;;;7.82;2.50;;;;;;;;;;5053217;28;20025;-75
2022/10/24 13:13:46;;;;;;;10.40;4.28;;;;;;;;;;5053298;28;20025;-75
2022/10/24 13:16:57;;;;;;;19.70;8.32;;;;;;;;;;5051734;28;20470;-75
2022/10/24 13:19:25;;;;;;;17.55;7.82;;;;;;;;;;5011300;28;20590;-75
2022/10/24 13:21:56;;;;;;;13.18;6.70;;;;;;;;;;5011258;28;20034;-75
2022/10/24 13:24:36;;;;;;;28.17;6.32;;;;;;;;;;5034564;28;20040;-75
2022/10/24 13:27:05;;;;;;;11.20;5.72;;;;;;;;;;5068345;28;20486;-75
2022/10/24 13:29:30;;;;;;;18.52;5.50;;;;;;;;;;5052906;28;20074;-75
2022/10/24 13:32:05;;;;;;;17.93;5.67;;;;;;;;;;5051808;28;20033;-75
2022/10/24 13:34:43;;;;;;;7.93;3.20;;;;;;;;;;5051522;28;20266;-75
2022/10/24 13:37:08;;;;;;;10.45;4.28;;;;;;;;;;5053344;28;20057;-75
2022/10/24 13:39:45;;;;;;;12.32;5.57;;;;;;;;;;5052769;28;20059;-74
2022/10/24 13:42:23;;;;;;;9.05;3.85;;;;;;;;;;5053228;28;20394;-75
2022/10/24 13:44:51;;;;;;;11.02;4.60;;;;;;;;;;5051464;28;20025;-75
2022/10/24 13:47:50;;;;;;;9.40;3.67;;;;;;;;;;5056082;28;20021;-74
2022/10/24 13:51:01;;;;;;;10.15;2.95;;;;;;;;;;5038973;28;20037;-77
2022/10/24 13:53:30;;;;;;;3.65;1.52;;;;;;;;;;5056027;28;20124;-74
2022/10/24 13:56:00;;;;;;;4.53;2.45;;;;;;;;;;5056085;28;20060;-74
2022/10/24 13:58:25;;;;;;;4.50;2.40;;;;;;;;;;5056358;28;20481;-75
2022/10/24 14:01:10;;;;;;;6.50;1.70;;;;;;;;;;5055922;28;20070;-75
2022/10/24 14:03:35;;;;;;;2.88;1.30;;;;;;;;;;5055819;28;20048;-76
2022/10/24 14:06:04;;;;;;;5.70;1.25;;;;;;;;;;5055929;28;20029;-74
2022/10/24 14:08:50;;;;;;;2.53;1.33;;;;;;;;;;5055506;28;20063;-75
2022/10/24 14:11:23;;;;;;;7.03;2.78;;;;;;;;;;5055760;28;20021;-74
2022/10/24 14:13:51;;;;;;;11.55;4.82;;;;;;;;;;5071146;28;20119;-73
2022/10/24 14:16:23;;;;;;;7.18;3.42;;;;;;;;;;5071307;28;20021;-74
2022/10/24 14:18:49;;;;;;;14.38;3.63;;;;;;;;;;5055868;28;20032;-74
2022/10/24 14:21:20;;;;;;;5.82;3.13;;;;;;;;;;5055826;28;20037;-74
2022/10/24 14:23:54;;;;;;;4.57;2.20;;;;;;;;;;5071493;28;20025;-74
2022/10/24 14:26:20;;;;;;;4.93;2.50;;;;;;;;;;5054816;28;20024;-74
2022/10/24 14:28:57;;;;;;;5.95;2.00;;;;;;;;;;5054706;28;20027;-74
2022/10/24 14:31:24;;;;;;;7.93;2.25;;;;;;;;;;5055982;28;20079;-74
2022/10/24 14:33:52;;;;;;;6.50;3.17;;;;;;;;;;5055741;28;20162;-75
2022/10/24 14:36:20;;;;;;;8.10;3.25;;;;;;;;;;5071273;28;20021;-75
2022/10/24 14:38:46;;;;;;;8.40;3.47;;;;;;;;;;5055848;28;20031;-74
2022/10/24 14:41:12;;;;;;;9.13;2.40;;;;;;;;;;5055797;28;20029;-75
2022/10/24 14:43:40;;;;;;;6.95;2.33;;;;;;;;;;5055773;28;20091;-74
2022/10/24 14:46:12;;;;;;;8.15;2.65;;;;;;;;;;5054367;28;20508;-74
2022/10/24 14:48:41;;;;;;;12.77;4.10;;;;;;;;;;5055662;28;20498;-74
2022/10/24 14:51:14;;;;;;;7.20;3.00;;;;;;;;;;5070897;28;20086;-74
2022/10/24 14:53:41;;;;;;;5.22;2.72;;;;;;;;;;5070964;28;20021;-75
2022/10/24 14:56:31;;;;;;;6.78;3.47;;;;;;;;;;5055665;28;20025;-74